Time;durP1;ratioP1;P1;durP2;ratioP2;P2;SDS_P1;SDS_P2;PMS_P1;PMS_P2;Temp;Humidity;BMP_temperature;BMP_pressure;BME280_temperature;BME280_humidity;BME280_pressure;Samples;Min_cycle;Max_cycle;Signal;HPM_P1;HPM_P2
2023/08/03 00:07:39;;;;;;;1999.90;999.90;;;;;;;;;;6678156;88;20728;-76
2023/08/03 00:17:40;;;;;;;1999.90;999.90;;;;;;;;;;6679485;88;20445;-75
2023/08/03 00:27:41;;;;;;;1999.90;999.90;;;;;;;;;;6717484;88;20627;-76
2023/08/03 00:37:42;;;;;;;1999.90;999.90;;;;;;;;;;6701216;88;20232;-76
2023/08/03 00:47:43;;;;;;;1999.90;999.90;;;;;;;;;;6689925;88;20635;-76
2023/08/03 00:57:44;;;;;;;1999.90;999.90;;;;;;;;;;6665124;88;20214;-76
2023/08/03 01:07:45;;;;;;;1999.90;999.90;;;;;;;;;;6685310;88;20263;-76
2023/08/03 01:17:46;;;;;;;1999.90;999.90;;;;;;;;;;6661493;88;20191;-77
2023/08/03 01:37:52;;;;;;;1999.90;999.90;;;;;;;;;;6735278;88;20233;-81
2023/08/03 01:47:53;;;;;;;1999.90;999.90;;;;;;;;;;6748181;88;20240;-81
2023/08/03 01:57:54;;;;;;;1999.90;999.90;;;;;;;;;;6748227;88;20208;-80
2023/08/03 02:07:55;;;;;;;1999.90;999.90;;;;;;;;;;6748143;88;20181;-80
2023/08/03 02:17:56;;;;;;;1999.90;999.90;;;;;;;;;;6748810;88;20201;-81
2023/08/03 02:27:57;;;;;;;1999.90;999.90;;;;;;;;;;6748992;88;20293;-82
2023/08/03 02:37:58;;;;;;;1999.90;999.90;;;;;;;;;;6757840;88;20192;-82
2023/08/03 02:47:59;;;;;;;1999.90;999.90;;;;;;;;;;6750561;88;20268;-82
2023/08/03 02:58:00;;;;;;;1999.90;999.90;;;;;;;;;;6751103;88;20176;-82
2023/08/03 03:08:01;;;;;;;1999.90;999.90;;;;;;;;;;6749619;88;20280;-82
2023/08/03 03:18:02;;;;;;;1999.90;999.90;;;;;;;;;;6746141;88;20178;-79
2023/08/03 03:28:06;;;;;;;1999.90;999.90;;;;;;;;;;6738150;88;20692;-78
2023/08/03 03:38:07;;;;;;;1999.90;999.90;;;;;;;;;;6736715;88;20223;-79
2023/08/03 03:48:08;;;;;;;1999.90;999.90;;;;;;;;;;6738753;88;20184;-79
2023/08/03 03:58:09;;;;;;;1999.90;999.90;;;;;;;;;;6738161;88;20199;-78
2023/08/03 04:08:10;;;;;;;1999.90;999.90;;;;;;;;;;6742897;88;20202;-80
2023/08/03 04:18:11;;;;;;;1999.90;999.90;;;;;;;;;;6746208;88;20355;-80
2023/08/03 04:28:12;;;;;;;1999.90;999.90;;;;;;;;;;6688950;88;20204;-78
2023/08/03 04:38:13;;;;;;;1999.90;999.90;;;;;;;;;;6737807;88;20191;-78
2023/08/03 04:48:14;;;;;;;1999.90;999.90;;;;;;;;;;6736294;88;20184;-78
2023/08/03 04:58:15;;;;;;;1999.90;999.90;;;;;;;;;;6735677;88;20609;-77
2023/08/03 05:08:16;;;;;;;1999.90;999.90;;;;;;;;;;6683902;88;20192;-79
2023/08/03 05:18:17;;;;;;;1999.90;999.90;;;;;;;;;;6667296;88;20271;-78
2023/08/03 05:28:18;;;;;;;1999.90;999.90;;;;;;;;;;6732507;88;20192;-77
2023/08/03 05:38:19;;;;;;;1999.90;999.90;;;;;;;;;;6666526;88;20209;-78
2023/08/03 05:48:21;;;;;;;1999.90;999.90;;;;;;;;;;6729223;88;20219;-78
2023/08/03 05:58:22;;;;;;;1999.90;999.90;;;;;;;;;;6658127;88;20176;-78
2023/08/03 06:08:24;;;;;;;1999.90;999.90;;;;;;;;;;6652842;88;20262;-78
2023/08/03 06:18:25;;;;;;;1999.90;999.90;;;;;;;;;;6737901;88;20639;-77
2023/08/03 06:28:26;;;;;;;1999.90;999.90;;;;;;;;;;6739154;88;20625;-78
2023/08/03 06:38:27;;;;;;;1999.90;999.90;;;;;;;;;;6739824;88;20242;-78
2023/08/03 06:48:28;;;;;;;1999.90;999.90;;;;;;;;;;6743798;88;20296;-80
2023/08/03 06:58:29;;;;;;;1999.90;999.90;;;;;;;;;;6741846;88;20192;-79
2023/08/03 07:08:30;;;;;;;1999.90;999.90;;;;;;;;;;6744356;88;20188;-79
2023/08/03 07:18:31;;;;;;;1999.90;999.90;;;;;;;;;;6748579;88;20224;-81
2023/08/03 07:28:32;;;;;;;1999.90;999.90;;;;;;;;;;6750469;88;20188;-78
2023/08/03 07:38:34;;;;;;;1999.90;999.90;;;;;;;;;;6737192;88;20265;-80
2023/08/03 07:48:35;;;;;;;1999.90;999.90;;;;;;;;;;6737374;88;20220;-78
2023/08/03 07:58:36;;;;;;;1999.90;999.90;;;;;;;;;;6736858;88;20189;-80
2023/08/03 08:08:37;;;;;;;1999.90;999.90;;;;;;;;;;6741680;88;20659;-80
2023/08/03 08:18:38;;;;;;;1999.90;999.90;;;;;;;;;;6733207;88;20296;-86
2023/08/03 08:28:40;;;;;;;1999.90;999.90;;;;;;;;;;6746131;88;20200;-84
2023/08/03 08:38:41;;;;;;;1999.90;999.90;;;;;;;;;;6748438;88;20217;-82
2023/08/03 08:48:42;;;;;;;1999.90;999.90;;;;;;;;;;6757420;88;20211;-83
2023/08/03 08:58:43;;;;;;;1999.90;999.90;;;;;;;;;;6762444;88;20256;-83
2023/08/03 09:08:54;;;;;;;1999.90;999.90;;;;;;;;;;6760504;88;20176;-82
2023/08/03 09:18:55;;;;;;;1999.90;999.90;;;;;;;;;;6760411;88;20767;-85
2023/08/03 09:28:57;;;;;;;1999.90;999.90;;;;;;;;;;6760759;88;20200;-83
2023/08/03 09:39:13;;;;;;;1999.90;999.90;;;;;;;;;;6759119;88;20176;-84
2023/08/03 09:49:14;;;;;;;1999.90;999.90;;;;;;;;;;6755146;88;20203;-84
2023/08/03 09:59:19;;;;;;;1999.90;999.90;;;;;;;;;;6758102;88;20208;-83
2023/08/03 10:09:22;;;;;;;1999.90;999.90;;;;;;;;;;6757712;88;20195;-82
2023/08/03 10:19:23;;;;;;;1999.90;999.90;;;;;;;;;;6758493;88;20189;-82
2023/08/03 10:29:43;;;;;;;1999.90;999.90;;;;;;;;;;6756024;88;20196;-81
2023/08/03 10:39:59;;;;;;;1999.90;999.90;;;;;;;;;;6758302;88;20260;-82
2023/08/03 10:50:01;;;;;;;1999.90;999.90;;;;;;;;;;6740383;88;20740;-83
2023/08/03 11:00:04;;;;;;;1999.90;999.90;;;;;;;;;;6739147;88;20224;-82
2023/08/03 11:10:06;;;;;;;1999.90;999.90;;;;;;;;;;6651509;88;20223;-83
2023/08/03 11:20:07;;;;;;;1999.90;999.90;;;;;;;;;;6737509;88;20227;-83
2023/08/03 11:30:09;;;;;;;1999.90;999.90;;;;;;;;;;6749234;88;20163;-82
2023/08/03 11:40:11;;;;;;;1999.90;999.90;;;;;;;;;;6748791;88;20191;-86
2023/08/03 11:50:13;;;;;;;1999.90;999.90;;;;;;;;;;6749745;88;20201;-87
2023/08/03 12:30:25;;;;;;;1999.90;999.90;;;;;;;;;;6769665;88;20251;-84
2023/08/03 12:40:47;;;;;;;1999.90;999.90;;;;;;;;;;6780609;76;20245;-85
2023/08/03 12:50:48;;;;;;;1999.90;999.90;;;;;;;;;;6718681;88;20665;-80
2023/08/03 13:00:49;;;;;;;1999.90;999.90;;;;;;;;;;6714047;88;20198;-82
2023/08/03 13:10:50;;;;;;;1999.90;999.90;;;;;;;;;;6708706;88;20233;-81
2023/08/03 13:20:51;;;;;;;1999.90;999.90;;;;;;;;;;6712414;88;20246;-83
2023/08/03 13:40:57;;;;;;;1999.90;999.90;;;;;;;;;;6704587;88;20636;-78
2023/08/03 13:50:58;;;;;;;1999.90;999.90;;;;;;;;;;6712490;88;20293;-79
2023/08/03 14:01:00;;;;;;;1999.90;999.90;;;;;;;;;;6690053;88;20206;-79
2023/08/03 14:11:01;;;;;;;1999.90;999.90;;;;;;;;;;6696733;88;20711;-80
2023/08/03 14:21:02;;;;;;;1999.90;999.90;;;;;;;;;;6704123;88;20201;-79
2023/08/03 14:31:03;;;;;;;1999.90;999.90;;;;;;;;;;6702881;88;20216;-79
2023/08/03 14:41:04;;;;;;;1999.90;999.90;;;;;;;;;;6708377;88;20777;-79
2023/08/03 14:51:05;;;;;;;1999.90;999.90;;;;;;;;;;6703068;88;20769;-78
2023/08/03 15:01:10;;;;;;;1999.90;999.90;;;;;;;;;;6703068;88;20239;-78
2023/08/03 15:11:11;;;;;;;1999.90;999.90;;;;;;;;;;6702840;88;20194;-78
2023/08/03 15:21:21;;;;;;;1999.90;999.90;;;;;;;;;;6693539;88;20273;-78
2023/08/03 15:31:24;;;;;;;1999.90;999.90;;;;;;;;;;6688302;88;20183;-79
2023/08/03 15:41:26;;;;;;;1999.90;999.90;;;;;;;;;;6684872;88;20305;-79
2023/08/03 15:51:27;;;;;;;1999.90;999.90;;;;;;;;;;6673958;88;20210;-79
2023/08/03 16:01:28;;;;;;;1999.90;999.90;;;;;;;;;;6669801;89;20212;-79
2023/08/03 16:11:29;;;;;;;1999.90;999.90;;;;;;;;;;6674902;89;20690;-79
2023/08/03 16:21:30;;;;;;;1999.90;999.90;;;;;;;;;;6672430;89;20219;-79
2023/08/03 16:31:34;;;;;;;1999.90;999.90;;;;;;;;;;6676616;88;20294;-79
2023/08/03 16:41:38;;;;;;;1999.90;999.90;;;;;;;;;;6685984;88;20190;-79
2023/08/03 16:51:39;;;;;;;1999.90;999.90;;;;;;;;;;6691177;88;20275;-79
2023/08/03 17:01:40;;;;;;;1999.90;999.90;;;;;;;;;;6691546;88;20257;-78
2023/08/03 17:11:41;;;;;;;1999.90;999.90;;;;;;;;;;6695185;88;20202;-77
2023/08/03 17:21:42;;;;;;;1999.90;999.90;;;;;;;;;;6694119;88;20671;-76
2023/08/03 17:31:44;;;;;;;1999.90;999.90;;;;;;;;;;6687394;88;20730;-76
2023/08/03 17:41:48;;;;;;;1999.90;999.90;;;;;;;;;;6680928;88;20573;-77
2023/08/03 17:51:49;;;;;;;1999.90;999.90;;;;;;;;;;6686092;88;20171;-76
2023/08/03 18:01:51;;;;;;;1999.90;999.90;;;;;;;;;;6689891;88;20686;-77
2023/08/03 18:11:51;;;;;;;1999.90;999.90;;;;;;;;;;6693479;88;20183;-76
2023/08/03 18:21:53;;;;;;;1999.90;999.90;;;;;;;;;;6689418;88;20200;-76
2023/08/03 18:31:54;;;;;;;1999.90;999.90;;;;;;;;;;6685744;88;20672;-76
2023/08/03 18:41:56;;;;;;;1999.90;999.90;;;;;;;;;;6681830;88;20226;-77
2023/08/03 18:51:57;;;;;;;1999.90;999.90;;;;;;;;;;6687184;88;20395;-77
2023/08/03 19:01:57;;;;;;;1999.90;999.90;;;;;;;;;;6681804;88;20680;-76
2023/08/03 19:11:59;;;;;;;1999.90;999.90;;;;;;;;;;6686033;88;20353;-77
2023/08/03 19:22:00;;;;;;;1999.90;999.90;;;;;;;;;;6691089;88;20175;-75
2023/08/03 19:42:05;;;;;;;1999.90;999.90;;;;;;;;;;6733285;88;20732;-80
2023/08/03 19:52:06;;;;;;;1999.90;999.90;;;;;;;;;;6731492;88;20614;-79
2023/08/03 20:02:07;;;;;;;1999.90;999.90;;;;;;;;;;6731846;88;20551;-80
2023/08/03 20:12:08;;;;;;;1999.90;999.90;;;;;;;;;;6729703;88;20205;-80
2023/08/03 20:22:09;;;;;;;1999.90;999.90;;;;;;;;;;6729240;88;20206;-80
2023/08/03 20:32:10;;;;;;;1999.90;999.90;;;;;;;;;;6726454;88;20221;-80
2023/08/03 20:42:11;;;;;;;1999.90;999.90;;;;;;;;;;6728725;88;20177;-80
2023/08/03 20:52:12;;;;;;;1999.90;999.90;;;;;;;;;;6724729;88;20212;-80
2023/08/03 21:02:13;;;;;;;1999.90;999.90;;;;;;;;;;6730374;88;20214;-80
2023/08/03 21:12:14;;;;;;;1999.90;999.90;;;;;;;;;;6733330;88;20251;-80
2023/08/03 21:22:18;;;;;;;1999.90;999.90;;;;;;;;;;6729959;88;20295;-79
2023/08/03 21:32:21;;;;;;;1999.90;999.90;;;;;;;;;;6728644;88;20647;-80
2023/08/03 21:42:22;;;;;;;1999.90;999.90;;;;;;;;;;6733389;88;20213;-81
2023/08/03 21:52:23;;;;;;;1999.90;999.90;;;;;;;;;;6740557;88;20721;-81
2023/08/03 22:02:24;;;;;;;1999.90;999.90;;;;;;;;;;6731267;88;20699;-81
2023/08/03 22:12:25;;;;;;;1999.90;999.90;;;;;;;;;;6734036;88;20402;-82
2023/08/03 22:22:26;;;;;;;1999.90;999.90;;;;;;;;;;6735397;88;20206;-81
2023/08/03 22:32:27;;;;;;;1999.90;999.90;;;;;;;;;;6735603;88;20684;-81
2023/08/03 22:42:28;;;;;;;1999.90;999.90;;;;;;;;;;6736115;88;20197;-81
2023/08/03 22:52:29;;;;;;;1999.90;999.90;;;;;;;;;;6733088;88;20350;-82
2023/08/03 23:02:30;;;;;;;1999.90;999.90;;;;;;;;;;6732123;88;20209;-81
2023/08/03 23:12:31;;;;;;;1999.90;999.90;;;;;;;;;;6733201;88;20189;-81
2023/08/03 23:22:32;;;;;;;1999.90;999.90;;;;;;;;;;6739824;88;20177;-83
2023/08/03 23:32:34;;;;;;;1999.90;999.90;;;;;;;;;;6748190;88;20206;-82
2023/08/03 23:53:38;;;;;;;1999.90;999.90;;;;;;;;;;6705609;89;20168;-82
